KTEX Airport Information

Runway Information
Runway 09 Length 6870 ft width 100 ft
Elevation 9061 ft Threshold 0 ft Heading 105
Runway 27 Length 6870 ft Width 100 ft
Elevation 9078 ft Threshold 0 ft Heading 285
Airport Frequencies
Type CNTR Name DENVER CNT Frequency 125.35 MHZ
Type FSS Name DENVER RDO Frequency 122.15 MHZ
Type UNIC Name CTAF/UNICO Frequency 123 MHZ
Airport Navaids
Airport Weather Information & NOTAM
ADDS - METARS form results

(1530 UTC 18 October 2018)
Data provider http://aviationweather.gov/metar/data/
 
METAR text: KTEX 181515Z AUTO 00000KT 10SM CLR 03/M01 A3038 RMK AO2
Conditions at: KTEX (TELLURIDE REGION, CO, US) observed 1515 UTC 18 October 2018
Temperature: 3.0°C (37°F)
Dewpoint: -1.0°C (30°F) [RH = 75%]
Pressure (altimeter): 30.38 inches Hg (1028.9 mb)
Winds: calm
Visibility: 10 or more miles (16+ km)
Ceiling: at least 12,000 feet AGL
Clouds: sky clear below 12,000 feet AGL
Weather: automated observation with no human augmentation;
there may or may not be significant weather present at this time

METAR text: KTEX 181455Z AUTO 00000KT 10SM SCT042 03/M02 A3039 RMK AO2
Conditions at: KTEX (TELLURIDE REGION, CO, US) observed 1455 UTC 18 October 2018
Temperature: 3.0°C (37°F)
Dewpoint: -2.0°C (28°F) [RH = 70%]
Pressure (altimeter): 30.39 inches Hg (1029.2 mb)
Winds: calm
Visibility: 10 or more miles (16+ km)
Ceiling: at least 12,000 feet AGL
Clouds: scattered clouds at 4200 feet AGL
Weather: automated observation with no human augmentation;
there may or may not be significant weather present at this time

METAR text: KTEX 181435Z AUTO 00000KT 10SM SCT020 SCT029 SCT035 02/M01 A3038 RMK AO2
Conditions at: KTEX (TELLURIDE REGION, CO, US) observed 1435 UTC 18 October 2018
Temperature: 2.0°C (36°F)
Dewpoint: -1.0°C (30°F) [RH = 80%]
Pressure (altimeter): 30.38 inches Hg (1028.9 mb)
Winds: calm
Visibility: 10 or more miles (16+ km)
Ceiling: at least 12,000 feet AGL
Clouds: scattered clouds at 2000 feet AGL
scattered clouds at 2900 feet AGL
scattered clouds at 3500 feet AGL
Weather: automated observation with no human augmentation;
there may or may not be significant weather present at this time

Forecast for: KTEX (TELLURIDE REGION, CO, US)
Text: KTEX 181126Z 1812/1912 VRB04KT P6SM VCSH SCT035 BKN050
Forecast period: 1200 to 2100 UTC 18 October 2018
Forecast type: FROM: standard forecast or significant change
Winds: variable direction winds at 5 MPH (4 knots; 2.1 m/s)
Visibility: 6 or more miles 10+ km)
Ceiling: 5000 feet AGL
Clouds: scattered clouds at 3500 feet AGL
broken clouds at 5000 feet AGL
Weather: VCSH  (showers in vicinity)
Text: FM182100 20008KT P6SM VCSH SCT050 BKN070
Forecast period: 2100 UTC 18 October 2018 to 0100 UTC 19 October 2018
Forecast type: FROM: standard forecast or significant change
Winds: from the SSW (200 degrees) at 9 MPH (8 knots; 4.1 m/s)
Visibility: 6 or more miles 10+ km)
Ceiling: 7000 feet AGL
Clouds: scattered clouds at 5000 feet AGL
broken clouds at 7000 feet AGL
Weather: VCSH  (showers in vicinity)
Text: FM190100 24005KT P6SM VCSH BKN025 OVC040
Forecast period: 0100 to 0600 UTC 19 October 2018
Forecast type: FROM: standard forecast or significant change
Winds: from the WSW (240 degrees) at 6 MPH (5 knots; 2.6 m/s)
Visibility: 6 or more miles 10+ km)
Ceiling: 2500 feet AGL
Clouds: broken clouds at 2500 feet AGL
overcast cloud deck at 4000 feet AGL
Weather: VCSH  (showers in vicinity)
Text: FM190600 15005KT P6SM FEW025 SCT070
Forecast period: 0600 to 1200 UTC 19 October 2018
Forecast type: FROM: standard forecast or significant change
Winds: from the SSE (150 degrees) at 6 MPH (5 knots; 2.6 m/s)
Visibility: 6 or more miles 10+ km)
Ceiling: at least 12,000 feet AGL
Clouds: few clouds at 2500 feet AGL
scattered clouds at 7000 feet AGL
Weather: no significant weather forecast for this period